createdAt,value
2022-10-11T16:58:11.099Z,76.60
2022-10-11T17:01:15.398Z,74.26
2022-10-11T17:04:19.133Z,73.38
2022-10-11T17:07:23.960Z,72.65
2022-10-11T17:10:39.381Z,72.66
2022-10-11T17:13:44.844Z,72.02
2022-10-11T17:16:48.451Z,72.09
2022-10-11T17:19:52.013Z,71.82
2022-10-11T17:22:55.728Z,71.86
2022-10-11T17:25:59.392Z,71.51
2022-10-11T17:29:04.532Z,71.60
2022-10-11T17:32:08.450Z,71.54
2022-10-11T17:35:12.140Z,72.42
2022-10-11T17:38:16.276Z,72.72
2022-10-11T17:41:20.546Z,73.38
2022-10-11T17:44:25.971Z,73.47
2022-10-11T17:47:30.224Z,73.67
2022-10-11T17:50:33.928Z,73.55
2022-10-11T17:53:38.497Z,72.89
2022-10-11T17:56:43.066Z,72.58
2022-10-11T17:59:48.223Z,72.03
2022-10-11T18:02:53.473Z,72.15
2022-10-11T18:05:57.750Z,72.51
2022-10-11T18:09:02.612Z,72.84
2022-10-11T18:12:06.348Z,72.43
2022-10-11T18:15:12.094Z,72.16
2022-10-11T18:18:18.090Z,72.47
2022-10-11T18:21:21.821Z,72.93
2022-10-11T18:24:25.451Z,72.80
2022-10-11T18:27:29.500Z,72.57
2022-10-11T18:30:34.531Z,73.13
2022-10-11T18:33:38.305Z,73.09
2022-10-11T18:36:42.096Z,73.57
2022-10-11T18:39:45.753Z,73.12
2022-10-11T18:42:49.418Z,73.71
2022-10-11T18:46:04.052Z,73.52
2022-10-11T18:49:08.849Z,73.48
2022-10-11T18:52:12.604Z,73.83
2022-10-11T18:55:17.281Z,73.59
2022-10-11T18:58:20.921Z,73.94
2022-10-11T19:01:28.913Z,73.78
2022-10-11T19:04:34.197Z,73.71
2022-10-11T19:07:39.908Z,74.08
2022-10-11T19:10:43.876Z,74.24
2022-10-11T19:13:47.596Z,73.85
2022-10-11T19:16:54.064Z,73.89
2022-10-11T19:19:59.474Z,73.81
2022-10-11T19:23:03.157Z,73.87
2022-10-11T19:26:07.495Z,74.20
2022-10-11T19:29:14.713Z,74.12
2022-10-11T19:32:19.845Z,74.25
2022-10-11T19:35:23.532Z,74.28
2022-10-11T19:38:27.203Z,74.12
2022-10-11T19:41:30.921Z,74.13
2022-10-11T19:44:38.694Z,73.93
2022-10-11T19:47:44.815Z,73.76
2022-10-11T19:50:48.405Z,74.41
2022-10-11T19:53:56.841Z,74.43
2022-10-11T19:57:00.639Z,74.72
2022-10-11T20:00:05.163Z,74.42
2022-10-11T20:03:10.162Z,74.22
2022-10-11T20:06:14.371Z,74.65
2022-10-11T20:09:29.079Z,74.25
